Terminal Aerodrome Forecast
Issued by NWS

Home | Current Version | Previous Version | Text Only | Print | Product List | Glossary Off
Versions: 1 2 3 4 5 6 7 8 9 10 11 12 13

000
FTUS43 KICT 262341
TAFHUT
TAF
KHUT 262341Z 2700/2724 06007KT P6SM SKC
     FM270600 12007KT P6SM BKN250
     FM271000 12009KT P6SM SCT025 BKN250
     FM271900 35016G23KT P6SM SCT025 BKN250=

USA.gov is the U.S. government's official web portal to all federal, state and local government web resources and services.